sensor_id;sensor_type;location;lat;lon;timestamp;temperature;humidity
58568;DHT22;44354;46.192;-1.076;2023-02-01T00:02:22;4.70;99.90
58568;DHT22;44354;46.192;-1.076;2023-02-01T00:04:48;4.70;99.90
58568;DHT22;44354;46.192;-1.076;2023-02-01T00:07:14;4.60;99.90
58568;DHT22;44354;46.192;-1.076;2023-02-01T00:09:40;4.70;99.90
58568;DHT22;44354;46.192;-1.076;2023-02-01T00:12:06;4.70;99.90
58568;DHT22;44354;46.192;-1.076;2023-02-01T00:14:31;4.70;99.90
58568;DHT22;44354;46.192;-1.076;2023-02-01T00:17:04;4.80;99.90
58568;DHT22;44354;46.192;-1.076;2023-02-01T00:19:36;4.80;99.90
58568;DHT22;44354;46.192;-1.076;2023-02-01T00:22:02;4.80;99.90
58568;DHT22;44354;46.192;-1.076;2023-02-01T00:24:27;4.80;99.90
58568;DHT22;44354;46.192;-1.076;2023-02-01T00:26:56;4.80;99.90
58568;DHT22;44354;46.192;-1.076;2023-02-01T00:29:22;4.80;99.90
58568;DHT22;44354;46.192;-1.076;2023-02-01T00:31:52;4.80;99.90
58568;DHT22;44354;46.192;-1.076;2023-02-01T00:34:19;4.70;99.90
58568;DHT22;44354;46.192;-1.076;2023-02-01T00:36:50;4.80;99.90
58568;DHT22;44354;46.192;-1.076;2023-02-01T00:39:17;4.80;99.90
58568;DHT22;44354;46.192;-1.076;2023-02-01T00:41:43;4.80;99.90
58568;DHT22;44354;46.192;-1.076;2023-02-01T00:44:08;4.80;99.90
58568;DHT22;44354;46.192;-1.076;2023-02-01T00:46:34;4.80;99.90
58568;DHT22;44354;46.192;-1.076;2023-02-01T00:49:00;4.80;99.90
58568;DHT22;44354;46.192;-1.076;2023-02-01T00:51:28;4.80;99.90
58568;DHT22;44354;46.192;-1.076;2023-02-01T00:53:55;4.90;99.90
58568;DHT22;44354;46.192;-1.076;2023-02-01T00:56:20;4.90;99.90
58568;DHT22;44354;46.192;-1.076;2023-02-01T00:58:46;4.90;99.90
58568;DHT22;44354;46.192;-1.076;2023-02-01T01:01:25;5.00;99.90
58568;DHT22;44354;46.192;-1.076;2023-02-01T01:03:59;5.00;99.90
58568;DHT22;44354;46.192;-1.076;2023-02-01T01:06:30;5.00;99.90
58568;DHT22;44354;46.192;-1.076;2023-02-01T01:08:58;4.90;99.90
58568;DHT22;44354;46.192;-1.076;2023-02-01T01:11:30;4.90;99.90
58568;DHT22;44354;46.192;-1.076;2023-02-01T01:13:57;4.90;99.90
58568;DHT22;44354;46.192;-1.076;2023-02-01T01:16:25;5.00;99.90
58568;DHT22;44354;46.192;-1.076;2023-02-01T01:18:57;5.00;99.90
58568;DHT22;44354;46.192;-1.076;2023-02-01T01:21:24;5.10;99.90
58568;DHT22;44354;46.192;-1.076;2023-02-01T01:23:49;5.10;99.90
58568;DHT22;44354;46.192;-1.076;2023-02-01T01:26:18;5.20;99.90
58568;DHT22;44354;46.192;-1.076;2023-02-01T01:28:44;5.10;99.90
58568;DHT22;44354;46.192;-1.076;2023-02-01T01:31:12;5.20;99.90
58568;DHT22;44354;46.192;-1.076;2023-02-01T01:33:38;5.30;99.90
58568;DHT22;44354;46.192;-1.076;2023-02-01T01:36:11;5.30;99.90
58568;DHT22;44354;46.192;-1.076;2023-02-01T01:38:39;5.40;99.90
58568;DHT22;44354;46.192;-1.076;2023-02-01T01:41:05;5.40;99.90
58568;DHT22;44354;46.192;-1.076;2023-02-01T01:43:53;5.40;99.90
58568;DHT22;44354;46.192;-1.076;2023-02-01T01:46:32;5.40;99.90
58568;DHT22;44354;46.192;-1.076;2023-02-01T01:49:21;5.40;99.90
58568;DHT22;44354;46.192;-1.076;2023-02-01T01:52:01;5.40;99.90
58568;DHT22;44354;46.192;-1.076;2023-02-01T01:54:45;5.40;99.90
58568;DHT22;44354;46.192;-1.076;2023-02-01T01:57:22;5.40;99.90
58568;DHT22;44354;46.192;-1.076;2023-02-01T02:00:00;5.50;99.90
58568;DHT22;44354;46.192;-1.076;2023-02-01T02:02:28;5.50;99.90
58568;DHT22;44354;46.192;-1.076;2023-02-01T02:04:57;5.50;99.90
58568;DHT22;44354;46.192;-1.076;2023-02-01T02:07:26;5.60;99.90
58568;DHT22;44354;46.192;-1.076;2023-02-01T02:09:55;5.60;99.90
58568;DHT22;44354;46.192;-1.076;2023-02-01T02:12:21;5.60;99.90
58568;DHT22;44354;46.192;-1.076;2023-02-01T02:14:48;5.60;99.90
58568;DHT22;44354;46.192;-1.076;2023-02-01T02:20:18;5.60;99.90
58568;DHT22;44354;46.192;-1.076;2023-02-01T02:39:56;5.90;99.90
58568;DHT22;44354;46.192;-1.076;2023-02-01T02:42:50;5.90;99.90
58568;DHT22;44354;46.192;-1.076;2023-02-01T02:49:11;6.10;99.90
58568;DHT22;44354;46.192;-1.076;2023-02-01T02:51:56;6.00;99.90
58568;DHT22;44354;46.192;-1.076;2023-02-01T02:54:45;6.10;99.90
58568;DHT22;44354;46.192;-1.076;2023-02-01T02:57:30;6.10;99.90
58568;DHT22;44354;46.192;-1.076;2023-02-01T03:00:19;6.10;99.90
58568;DHT22;44354;46.192;-1.076;2023-02-01T03:03:09;6.20;99.90
58568;DHT22;44354;46.192;-1.076;2023-02-01T03:05:56;6.20;99.90
58568;DHT22;44354;46.192;-1.076;2023-02-01T03:08:24;6.30;99.90
58568;DHT22;44354;46.192;-1.076;2023-02-01T03:11:04;6.30;99.90
58568;DHT22;44354;46.192;-1.076;2023-02-01T03:19:36;6.30;99.90
58568;DHT22;44354;46.192;-1.076;2023-02-01T03:22:12;6.30;99.90
58568;DHT22;44354;46.192;-1.076;2023-02-01T03:30:22;6.20;99.90
58568;DHT22;44354;46.192;-1.076;2023-02-01T03:32:55;6.10;99.90
58568;DHT22;44354;46.192;-1.076;2023-02-01T03:38:33;5.90;99.90
58568;DHT22;44354;46.192;-1.076;2023-02-01T03:43:46;6.00;99.90
58568;DHT22;44354;46.192;-1.076;2023-02-01T03:46:24;6.00;99.90
58568;DHT22;44354;46.192;-1.076;2023-02-01T03:49:00;6.00;99.90
58568;DHT22;44354;46.192;-1.076;2023-02-01T03:51:28;5.90;99.90
58568;DHT22;44354;46.192;-1.076;2023-02-01T03:53:55;6.00;99.90
58568;DHT22;44354;46.192;-1.076;2023-02-01T03:56:22;5.90;99.90
58568;DHT22;44354;46.192;-1.076;2023-02-01T03:58:51;5.90;99.90
58568;DHT22;44354;46.192;-1.076;2023-02-01T04:01:27;5.90;99.90
58568;DHT22;44354;46.192;-1.076;2023-02-01T04:03:59;5.80;99.90
58568;DHT22;44354;46.192;-1.076;2023-02-01T04:06:25;5.80;99.90
58568;DHT22;44354;46.192;-1.076;2023-02-01T04:08:51;5.90;99.90
58568;DHT22;44354;46.192;-1.076;2023-02-01T04:11:17;5.90;99.90
58568;DHT22;44354;46.192;-1.076;2023-02-01T04:13:46;5.80;99.90
58568;DHT22;44354;46.192;-1.076;2023-02-01T04:16:11;5.90;99.90
58568;DHT22;44354;46.192;-1.076;2023-02-01T04:18:37;5.90;99.90
58568;DHT22;44354;46.192;-1.076;2023-02-01T04:21:03;5.80;99.90
58568;DHT22;44354;46.192;-1.076;2023-02-01T04:23:29;5.70;99.90
58568;DHT22;44354;46.192;-1.076;2023-02-01T04:26:01;5.80;99.90
58568;DHT22;44354;46.192;-1.076;2023-02-01T04:28:27;5.70;99.90
58568;DHT22;44354;46.192;-1.076;2023-02-01T04:30:53;5.70;99.90
58568;DHT22;44354;46.192;-1.076;2023-02-01T04:33:19;5.80;99.90
58568;DHT22;44354;46.192;-1.076;2023-02-01T04:35:44;5.80;99.90
58568;DHT22;44354;46.192;-1.076;2023-02-01T04:38:10;5.80;99.90
58568;DHT22;44354;46.192;-1.076;2023-02-01T04:40:36;5.70;99.90
58568;DHT22;44354;46.192;-1.076;2023-02-01T04:43:03;5.70;99.90
58568;DHT22;44354;46.192;-1.076;2023-02-01T04:45:29;5.70;99.90
58568;DHT22;44354;46.192;-1.076;2023-02-01T04:47:58;5.70;99.90
58568;DHT22;44354;46.192;-1.076;2023-02-01T04:50:23;5.70;99.90
58568;DHT22;44354;46.192;-1.076;2023-02-01T04:52:49;5.70;99.90
58568;DHT22;44354;46.192;-1.076;2023-02-01T04:55:15;5.70;99.90
58568;DHT22;44354;46.192;-1.076;2023-02-01T04:57:44;5.70;99.90
58568;DHT22;44354;46.192;-1.076;2023-02-01T05:00:10;5.70;99.90
58568;DHT22;44354;46.192;-1.076;2023-02-01T05:02:36;5.70;99.90
58568;DHT22;44354;46.192;-1.076;2023-02-01T05:05:05;5.70;99.90
58568;DHT22;44354;46.192;-1.076;2023-02-01T05:07:34;5.60;99.90
58568;DHT22;44354;46.192;-1.076;2023-02-01T05:10:00;5.50;99.90
58568;DHT22;44354;46.192;-1.076;2023-02-01T05:12:25;5.40;99.90
58568;DHT22;44354;46.192;-1.076;2023-02-01T05:15:09;5.40;99.90
58568;DHT22;44354;46.192;-1.076;2023-02-01T05:17:35;5.40;99.90
58568;DHT22;44354;46.192;-1.076;2023-02-01T05:20:01;5.40;99.90
58568;DHT22;44354;46.192;-1.076;2023-02-01T05:22:26;5.30;99.90
58568;DHT22;44354;46.192;-1.076;2023-02-01T05:24:52;5.30;99.90
58568;DHT22;44354;46.192;-1.076;2023-02-01T05:27:18;5.30;99.90
58568;DHT22;44354;46.192;-1.076;2023-02-01T05:29:45;5.30;99.90
58568;DHT22;44354;46.192;-1.076;2023-02-01T05:32:28;5.30;99.90
58568;DHT22;44354;46.192;-1.076;2023-02-01T05:34:53;5.30;99.90
58568;DHT22;44354;46.192;-1.076;2023-02-01T05:37:20;5.30;99.90
58568;DHT22;44354;46.192;-1.076;2023-02-01T05:39:52;5.30;99.90
58568;DHT22;44354;46.192;-1.076;2023-02-01T05:42:40;5.30;99.90
58568;DHT22;44354;46.192;-1.076;2023-02-01T05:45:12;5.40;99.90
58568;DHT22;44354;46.192;-1.076;2023-02-01T05:47:40;5.40;99.90
58568;DHT22;44354;46.192;-1.076;2023-02-01T05:50:09;5.40;99.90
58568;DHT22;44354;46.192;-1.076;2023-02-01T06:00:59;5.50;99.90
58568;DHT22;44354;46.192;-1.076;2023-02-01T06:03:26;5.50;99.90
58568;DHT22;44354;46.192;-1.076;2023-02-01T06:06:11;5.60;99.90
58568;DHT22;44354;46.192;-1.076;2023-02-01T06:09:08;5.60;99.90
58568;DHT22;44354;46.192;-1.076;2023-02-01T06:11:36;5.70;99.90
58568;DHT22;44354;46.192;-1.076;2023-02-01T06:14:04;5.70;99.90
58568;DHT22;44354;46.192;-1.076;2023-02-01T06:16:33;5.70;99.90
58568;DHT22;44354;46.192;-1.076;2023-02-01T06:19:22;5.70;99.90
58568;DHT22;44354;46.192;-1.076;2023-02-01T06:22:10;5.70;99.90
58568;DHT22;44354;46.192;-1.076;2023-02-01T06:24:36;5.70;99.90
58568;DHT22;44354;46.192;-1.076;2023-02-01T06:27:02;5.90;99.90
58568;DHT22;44354;46.192;-1.076;2023-02-01T06:29:28;5.90;99.90
58568;DHT22;44354;46.192;-1.076;2023-02-01T06:31:54;6.00;99.90
58568;DHT22;44354;46.192;-1.076;2023-02-01T06:34:22;6.00;99.90
58568;DHT22;44354;46.192;-1.076;2023-02-01T06:36:49;6.00;99.90
58568;DHT22;44354;46.192;-1.076;2023-02-01T06:39:25;6.00;99.90
58568;DHT22;44354;46.192;-1.076;2023-02-01T06:41:52;5.90;99.90
58568;DHT22;44354;46.192;-1.076;2023-02-01T06:44:20;5.90;99.90
58568;DHT22;44354;46.192;-1.076;2023-02-01T06:46:46;6.00;99.90
58568;DHT22;44354;46.192;-1.076;2023-02-01T06:49:12;6.00;99.90
58568;DHT22;44354;46.192;-1.076;2023-02-01T06:51:37;6.00;99.90
58568;DHT22;44354;46.192;-1.076;2023-02-01T06:54:03;6.10;99.90
58568;DHT22;44354;46.192;-1.076;2023-02-01T07:13:40;6.20;99.90
58568;DHT22;44354;46.192;-1.076;2023-02-01T07:19:37;6.20;99.90
58568;DHT22;44354;46.192;-1.076;2023-02-01T08:08:39;6.00;99.90
58568;DHT22;44354;46.192;-1.076;2023-02-01T08:11:06;6.00;99.90
58568;DHT22;44354;46.192;-1.076;2023-02-01T08:13:33;6.00;99.90
58568;DHT22;44354;46.192;-1.076;2023-02-01T08:16:02;5.90;99.90
58568;DHT22;44354;46.192;-1.076;2023-02-01T08:18:29;6.10;99.90
58568;DHT22;44354;46.192;-1.076;2023-02-01T08:20:55;6.20;99.90
58568;DHT22;44354;46.192;-1.076;2023-02-01T08:23:22;6.20;99.90
58568;DHT22;44354;46.192;-1.076;2023-02-01T08:25:48;6.20;99.90
58568;DHT22;44354;46.192;-1.076;2023-02-01T08:28:13;6.30;99.90
58568;DHT22;44354;46.192;-1.076;2023-02-01T08:30:40;6.40;99.90
58568;DHT22;44354;46.192;-1.076;2023-02-01T09:01:41;6.60;99.90
58568;DHT22;44354;46.192;-1.076;2023-02-01T09:09:27;6.70;99.90
58568;DHT22;44354;46.192;-1.076;2023-02-01T10:38:36;8.30;99.90
58568;DHT22;44354;46.192;-1.076;2023-02-01T10:43:55;8.50;99.90
58568;DHT22;44354;46.192;-1.076;2023-02-01T10:57:26;8.50;99.90
58568;DHT22;44354;46.192;-1.076;2023-02-01T11:02:35;8.50;99.90
58568;DHT22;44354;46.192;-1.076;2023-02-01T11:10:40;8.40;99.90
58568;DHT22;44354;46.192;-1.076;2023-02-01T11:16:02;8.40;99.90
58568;DHT22;44354;46.192;-1.076;2023-02-01T11:21:26;8.40;99.90
58568;DHT22;44354;46.192;-1.076;2023-02-01T11:24:02;8.60;99.90
58568;DHT22;44354;46.192;-1.076;2023-02-01T11:35:04;8.90;99.90
58568;DHT22;44354;46.192;-1.076;2023-02-01T11:37:39;9.10;99.90
58568;DHT22;44354;46.192;-1.076;2023-02-01T11:40:34;9.40;99.90
58568;DHT22;44354;46.192;-1.076;2023-02-01T11:43:25;9.40;99.90
58568;DHT22;44354;46.192;-1.076;2023-02-01T11:45:59;9.40;99.90
58568;DHT22;44354;46.192;-1.076;2023-02-01T11:48:27;9.40;99.90
58568;DHT22;44354;46.192;-1.076;2023-02-01T12:12:25;8.90;99.90
58568;DHT22;44354;46.192;-1.076;2023-02-01T12:17:56;9.50;99.90
58568;DHT22;44354;46.192;-1.076;2023-02-01T12:47:03;9.40;99.90
58568;DHT22;44354;46.192;-1.076;2023-02-01T12:49:51;9.10;99.90
58568;DHT22;44354;46.192;-1.076;2023-02-01T12:52:44;9.10;99.90
58568;DHT22;44354;46.192;-1.076;2023-02-01T12:58:06;9.60;99.90
58568;DHT22;44354;46.192;-1.076;2023-02-01T13:04:05;10.00;99.90
58568;DHT22;44354;46.192;-1.076;2023-02-01T13:09:36;10.40;99.90
58568;DHT22;44354;46.192;-1.076;2023-02-01T13:12:21;10.70;99.90
58568;DHT22;44354;46.192;-1.076;2023-02-01T13:15:01;10.60;99.90
58568;DHT22;44354;46.192;-1.076;2023-02-01T13:17:30;10.30;99.90
58568;DHT22;44354;46.192;-1.076;2023-02-01T13:23:04;9.80;99.90
58568;DHT22;44354;46.192;-1.076;2023-02-01T13:25:53;9.50;99.90
58568;DHT22;44354;46.192;-1.076;2023-02-01T13:28:58;9.20;99.90
58568;DHT22;44354;46.192;-1.076;2023-02-01T13:32:07;9.00;99.90
58568;DHT22;44354;46.192;-1.076;2023-02-01T13:40:35;9.30;99.90
58568;DHT22;44354;46.192;-1.076;2023-02-01T13:43:09;9.60;99.90
58568;DHT22;44354;46.192;-1.076;2023-02-01T13:45:43;10.00;99.90
58568;DHT22;44354;46.192;-1.076;2023-02-01T13:48:19;10.00;99.90
58568;DHT22;44354;46.192;-1.076;2023-02-01T13:50:51;10.10;99.90
58568;DHT22;44354;46.192;-1.076;2023-02-01T13:53:44;10.20;99.90
58568;DHT22;44354;46.192;-1.076;2023-02-01T13:56:13;10.20;99.90
58568;DHT22;44354;46.192;-1.076;2023-02-01T13:58:42;10.00;99.90
58568;DHT22;44354;46.192;-1.076;2023-02-01T14:01:33;9.90;99.90
58568;DHT22;44354;46.192;-1.076;2023-02-01T14:07:15;9.90;99.90
58568;DHT22;44354;46.192;-1.076;2023-02-01T14:16:30;9.50;99.90
58568;DHT22;44354;46.192;-1.076;2023-02-01T14:19:21;9.40;99.90
58568;DHT22;44354;46.192;-1.076;2023-02-01T14:21:55;9.30;99.90
58568;DHT22;44354;46.192;-1.076;2023-02-01T14:24:32;9.30;99.90
58568;DHT22;44354;46.192;-1.076;2023-02-01T14:26:59;9.50;99.90
58568;DHT22;44354;46.192;-1.076;2023-02-01T14:29:27;9.30;99.90
58568;DHT22;44354;46.192;-1.076;2023-02-01T14:32:05;9.30;99.90
58568;DHT22;44354;46.192;-1.076;2023-02-01T14:34:59;9.30;99.90
58568;DHT22;44354;46.192;-1.076;2023-02-01T14:37:32;9.10;99.90
58568;DHT22;44354;46.192;-1.076;2023-02-01T14:56:00;9.10;99.90
58568;DHT22;44354;46.192;-1.076;2023-02-01T17:20:21;6.60;99.90
58568;DHT22;44354;46.192;-1.076;2023-02-01T17:23:09;6.50;99.90
58568;DHT22;44354;46.192;-1.076;2023-02-01T17:25:57;6.40;99.90
58568;DHT22;44354;46.192;-1.076;2023-02-01T17:32:04;6.20;99.90
58568;DHT22;44354;46.192;-1.076;2023-02-01T17:34:30;6.00;99.90
58568;DHT22;44354;46.192;-1.076;2023-02-01T17:36:56;6.00;99.90
58568;DHT22;44354;46.192;-1.076;2023-02-01T17:39:22;5.90;99.90
58568;DHT22;44354;46.192;-1.076;2023-02-01T17:42:09;5.90;99.90
58568;DHT22;44354;46.192;-1.076;2023-02-01T17:44:36;5.80;99.90
58568;DHT22;44354;46.192;-1.076;2023-02-01T17:47:01;5.70;99.90
58568;DHT22;44354;46.192;-1.076;2023-02-01T17:49:27;5.70;99.90
58568;DHT22;44354;46.192;-1.076;2023-02-01T17:51:54;5.60;99.90
58568;DHT22;44354;46.192;-1.076;2023-02-01T17:54:20;5.60;99.90
58568;DHT22;44354;46.192;-1.076;2023-02-01T17:56:45;5.60;99.90
58568;DHT22;44354;46.192;-1.076;2023-02-01T17:59:14;5.50;99.90
58568;DHT22;44354;46.192;-1.076;2023-02-01T18:01:39;5.50;99.90
58568;DHT22;44354;46.192;-1.076;2023-02-01T18:04:07;5.50;99.90
58568;DHT22;44354;46.192;-1.076;2023-02-01T18:06:34;5.40;99.90
58568;DHT22;44354;46.192;-1.076;2023-02-01T18:09:00;5.30;99.90
58568;DHT22;44354;46.192;-1.076;2023-02-01T18:11:26;5.30;99.90
58568;DHT22;44354;46.192;-1.076;2023-02-01T18:13:52;5.30;99.90
58568;DHT22;44354;46.192;-1.076;2023-02-01T18:16:34;5.30;99.90
58568;DHT22;44354;46.192;-1.076;2023-02-01T18:19:01;5.20;99.90
58568;DHT22;44354;46.192;-1.076;2023-02-01T18:21:37;5.20;99.90
58568;DHT22;44354;46.192;-1.076;2023-02-01T18:24:15;5.10;99.90
58568;DHT22;44354;46.192;-1.076;2023-02-01T18:26:47;5.10;99.90
58568;DHT22;44354;46.192;-1.076;2023-02-01T18:29:13;5.10;99.90
58568;DHT22;44354;46.192;-1.076;2023-02-01T18:31:44;5.00;99.90
58568;DHT22;44354;46.192;-1.076;2023-02-01T18:34:10;5.00;99.90
58568;DHT22;44354;46.192;-1.076;2023-02-01T18:36:41;5.00;99.90
58568;DHT22;44354;46.192;-1.076;2023-02-01T18:39:08;5.00;99.90
58568;DHT22;44354;46.192;-1.076;2023-02-01T18:41:36;5.00;99.90
58568;DHT22;44354;46.192;-1.076;2023-02-01T18:44:02;5.00;99.90
58568;DHT22;44354;46.192;-1.076;2023-02-01T18:46:43;5.10;99.90
58568;DHT22;44354;46.192;-1.076;2023-02-01T18:49:35;5.10;99.90
58568;DHT22;44354;46.192;-1.076;2023-02-01T18:52:21;5.10;99.90
58568;DHT22;44354;46.192;-1.076;2023-02-01T18:54:51;5.00;99.90
58568;DHT22;44354;46.192;-1.076;2023-02-01T18:57:21;5.00;99.90
58568;DHT22;44354;46.192;-1.076;2023-02-01T19:00:03;4.90;99.90
58568;DHT22;44354;46.192;-1.076;2023-02-01T19:06:02;4.90;99.90
58568;DHT22;44354;46.192;-1.076;2023-02-01T19:09:09;4.80;99.90
58568;DHT22;44354;46.192;-1.076;2023-02-01T19:15:03;4.90;99.90
58568;DHT22;44354;46.192;-1.076;2023-02-01T19:17:30;5.10;99.90
58568;DHT22;44354;46.192;-1.076;2023-02-01T19:20:03;5.10;99.90
58568;DHT22;44354;46.192;-1.076;2023-02-01T19:22:39;5.30;99.90
58568;DHT22;44354;46.192;-1.076;2023-02-01T19:28:42;5.40;99.90
58568;DHT22;44354;46.192;-1.076;2023-02-01T19:31:35;5.50;99.90
58568;DHT22;44354;46.192;-1.076;2023-02-01T19:34:48;5.60;99.90
58568;DHT22;44354;46.192;-1.076;2023-02-01T19:40:16;5.80;99.90
58568;DHT22;44354;46.192;-1.076;2023-02-01T19:42:43;5.80;99.90
58568;DHT22;44354;46.192;-1.076;2023-02-01T19:45:12;5.80;99.90
58568;DHT22;44354;46.192;-1.076;2023-02-01T19:47:46;5.80;99.90
58568;DHT22;44354;46.192;-1.076;2023-02-01T19:50:27;5.80;99.90
58568;DHT22;44354;46.192;-1.076;2023-02-01T19:52:52;5.80;99.90
58568;DHT22;44354;46.192;-1.076;2023-02-01T19:55:19;5.80;99.90
58568;DHT22;44354;46.192;-1.076;2023-02-01T19:57:45;5.90;99.90
58568;DHT22;44354;46.192;-1.076;2023-02-01T20:00:23;5.90;99.90
58568;DHT22;44354;46.192;-1.076;2023-02-01T20:03:24;6.00;99.90
58568;DHT22;44354;46.192;-1.076;2023-02-01T20:09:20;6.00;99.90
58568;DHT22;44354;46.192;-1.076;2023-02-01T20:11:47;6.00;99.90
58568;DHT22;44354;46.192;-1.076;2023-02-01T20:14:22;6.00;99.90
58568;DHT22;44354;46.192;-1.076;2023-02-01T20:16:52;6.00;99.90
58568;DHT22;44354;46.192;-1.076;2023-02-01T20:19:18;6.00;99.90
58568;DHT22;44354;46.192;-1.076;2023-02-01T20:21:49;6.00;99.90
58568;DHT22;44354;46.192;-1.076;2023-02-01T20:24:17;6.00;99.90
58568;DHT22;44354;46.192;-1.076;2023-02-01T20:26:44;6.00;99.90
58568;DHT22;44354;46.192;-1.076;2023-02-01T20:29:10;6.00;99.90
58568;DHT22;44354;46.192;-1.076;2023-02-01T20:31:39;6.00;99.90
58568;DHT22;44354;46.192;-1.076;2023-02-01T20:34:05;6.00;99.90
58568;DHT22;44354;46.192;-1.076;2023-02-01T20:36:50;6.00;99.90
58568;DHT22;44354;46.192;-1.076;2023-02-01T20:39:20;6.00;99.90
58568;DHT22;44354;46.192;-1.076;2023-02-01T20:59:55;6.00;99.90
58568;DHT22;44354;46.192;-1.076;2023-02-01T21:53:08;6.30;99.90
58568;DHT22;44354;46.192;-1.076;2023-02-01T21:55:33;6.20;99.90
58568;DHT22;44354;46.192;-1.076;2023-02-01T21:57:59;6.20;99.90
58568;DHT22;44354;46.192;-1.076;2023-02-01T22:00:25;6.10;99.90
58568;DHT22;44354;46.192;-1.076;2023-02-01T22:02:52;6.10;99.90
58568;DHT22;44354;46.192;-1.076;2023-02-01T22:05:21;6.10;99.90
58568;DHT22;44354;46.192;-1.076;2023-02-01T22:07:46;6.10;99.90
58568;DHT22;44354;46.192;-1.076;2023-02-01T22:10:38;6.00;99.90
58568;DHT22;44354;46.192;-1.076;2023-02-01T22:13:08;6.00;99.90
58568;DHT22;44354;46.192;-1.076;2023-02-01T22:15:34;6.00;99.90
58568;DHT22;44354;46.192;-1.076;2023-02-01T22:18:00;6.10;99.90
58568;DHT22;44354;46.192;-1.076;2023-02-01T22:20:26;6.10;99.90
58568;DHT22;44354;46.192;-1.076;2023-02-01T22:22:56;6.20;99.90
58568;DHT22;44354;46.192;-1.076;2023-02-01T22:25:44;6.20;99.90
58568;DHT22;44354;46.192;-1.076;2023-02-01T22:28:26;6.10;99.90
58568;DHT22;44354;46.192;-1.076;2023-02-01T22:31:00;6.10;99.90
58568;DHT22;44354;46.192;-1.076;2023-02-01T22:33:54;6.20;99.90
58568;DHT22;44354;46.192;-1.076;2023-02-01T22:36:21;6.10;99.90
58568;DHT22;44354;46.192;-1.076;2023-02-01T22:38:49;6.00;99.90
58568;DHT22;44354;46.192;-1.076;2023-02-01T22:41:15;6.00;99.90
58568;DHT22;44354;46.192;-1.076;2023-02-01T22:43:41;5.90;99.90
58568;DHT22;44354;46.192;-1.076;2023-02-01T22:46:11;5.80;99.90
58568;DHT22;44354;46.192;-1.076;2023-02-01T22:48:38;5.80;99.90
58568;DHT22;44354;46.192;-1.076;2023-02-01T22:51:06;5.80;99.90
58568;DHT22;44354;46.192;-1.076;2023-02-01T22:53:32;5.70;99.90
58568;DHT22;44354;46.192;-1.076;2023-02-01T22:56:03;5.70;99.90
58568;DHT22;44354;46.192;-1.076;2023-02-01T22:58:29;5.60;99.90
58568;DHT22;44354;46.192;-1.076;2023-02-01T23:00:55;5.60;99.90
58568;DHT22;44354;46.192;-1.076;2023-02-01T23:03:21;5.50;99.90
58568;DHT22;44354;46.192;-1.076;2023-02-01T23:05:46;5.50;99.90
58568;DHT22;44354;46.192;-1.076;2023-02-01T23:08:12;5.40;99.90
58568;DHT22;44354;46.192;-1.076;2023-02-01T23:10:38;5.30;99.90
58568;DHT22;44354;46.192;-1.076;2023-02-01T23:13:04;5.20;99.90
58568;DHT22;44354;46.192;-1.076;2023-02-01T23:15:29;5.10;99.90
58568;DHT22;44354;46.192;-1.076;2023-02-01T23:17:57;5.00;99.90
58568;DHT22;44354;46.192;-1.076;2023-02-01T23:20:38;5.00;99.90
58568;DHT22;44354;46.192;-1.076;2023-02-01T23:23:27;5.00;99.90
58568;DHT22;44354;46.192;-1.076;2023-02-01T23:26:22;5.00;99.90
58568;DHT22;44354;46.192;-1.076;2023-02-01T23:28:48;5.00;99.90
58568;DHT22;44354;46.192;-1.076;2023-02-01T23:31:15;4.90;99.90
58568;DHT22;44354;46.192;-1.076;2023-02-01T23:33:43;4.90;99.90
58568;DHT22;44354;46.192;-1.076;2023-02-01T23:36:11;4.80;99.90
58568;DHT22;44354;46.192;-1.076;2023-02-01T23:38:37;4.70;99.90
58568;DHT22;44354;46.192;-1.076;2023-02-01T23:41:04;4.70;99.90
58568;DHT22;44354;46.192;-1.076;2023-02-01T23:43:30;4.70;99.90
58568;DHT22;44354;46.192;-1.076;2023-02-01T23:46:15;4.60;99.90
58568;DHT22;44354;46.192;-1.076;2023-02-01T23:48:42;4.70;99.90
58568;DHT22;44354;46.192;-1.076;2023-02-01T23:51:08;4.60;99.90
58568;DHT22;44354;46.192;-1.076;2023-02-01T23:53:34;4.60;99.90
58568;DHT22;44354;46.192;-1.076;2023-02-01T23:56:00;4.60;99.90
58568;DHT22;44354;46.192;-1.076;2023-02-01T23:58:40;4.60;99.90
